イカルイト の空港の天気 - METARとTAF

イカルイト空港 ( CYFB / YFB ) - カナダ ヌナブト準州イカルイト
飛行場実況気象(Metar)
観測時間09/24 21:00 EDT (09/25 01:00 UTC)
風向・風速静穏 0m/s
視程10km以上
天気現象
全天の4割程度の雲 雲底高度 910m
全天の8割程度の雲 雲底高度 4270m
気温0℃
湿度86%
気圧1016hPa
METARCYFB 250100Z 00000KT 15SM SCT030 BKN140 M00/M02 A2999 RMK SC3AC3 SLP160
過去の天気等 Google飛行場航空写真 Wunderground天気予報

過去48時間のMETAR

飛行場予報(TAF)
発表時間: 9/24 19:39 EDT (9/24 23:39 UTC)
予報対象時間: 24日20時 EDT ~ 25日20時 EDT
風向・風速不定 2m/s
視程10km以上
全天の8割程度の雲 雲底高度 1220m
全天を覆う雲 雲底高度 3050m
24日20時 EDT ~ 24日23時 EDT に一時的に
視程6440m
天気現象弱い雪
少しの雲 雲底高度 610m
全天を覆う雲 雲底高度 1220m
24日23時 EDT から
風向・風速西北西 3m/s
視程10km以上
全天の8割程度の雲 雲底高度 910m
全天を覆う雲 雲底高度 3660m
24日23時 EDT ~ 25日12時 EDT に一時的に
全天の8割程度の雲 雲底高度 610m
全天を覆う雲 雲底高度 3660m
25日12時 EDT から
風向・風速南南西 4m/s
視程10km以上
全天の4割程度の雲 雲底高度 610m
25日12時 EDT ~ 25日16時 EDT に一時的に
全天の8割程度の雲 雲底高度 610m
25日16時 EDT から
風向・風速南南東 3m/s
視程10km以上
少しの雲 雲底高度 910m
全天の4割程度の雲 雲底高度 4270m
TAF CYFB 242339Z 2500/2524 VRB03KT P6SM BKN040 OVC100
TEMPO 2500/2503 4SM -SN FEW020 OVC040
FM250300 30005KT P6SM BKN030 OVC120
TEMPO 2503/2516 BKN020 OVC120
FM251600 20008KT P6SM SCT020
TEMPO 2516/2520 BKN020
FM252000 15005KT P6SM FEW030 SCT140 RMK NXT FCST BY 250600Z